UTTT/TAS METAR and TAF weather

Enter ICAO airport designator
Station Type Date Time Source
UTTT METAR 2019/07/20 05:00 UTC NOAA

UTTT 200500Z 16008KT 120V200 CAVOK 32/12 Q1007 R26R/CLRD70 NOSIG


Station Type Date Time Source
UTTT Decoded METAR 2019/07/20 05:00 UTC NOAA

Tashkent, Uzbekistan (UTTT) 41-16N 069-16E 488M
Jul 20, 2019 - 01:00 AM EDT / 2019.07.20 0500 UTC
Wind: from the SSE (160 degrees) at 9 MPH (8 KT) (direction variable):0
Visibility: greater than 7 mile(s):0
Temperature: 89 F (32 C)
Dew Point: 53 F (12 C)
Relative Humidity: 29%
Pressure (altimeter): 29.74 in. Hg (1007 hPa)
ob: UTTT 200500Z 16008KT 120V200 CAVOK 32/12 Q1007 R26R/CLRD70 NOSIG
cycle: 5

Station Type Date Time Source
UTTT TAF 2019/07/20 06:09 UTC NOAA

TAF UTTT 200500Z 2006/2106 22010KT 7000 NSC TX41/2011Z
TEMPO 2006/2016 30012G22KT

Example: see airport list